EGXW

RAF Waddington Airport

Waddington, United Kingdom
METAR EGXW 230850Z 27015KT CAVOK 11/08 Q1027 BLU BECMG 28016G26KT BLU
Observed Flight Rules
Oct-23 @ 08:50 UTC (49 minutes ago) Visual Flight Rules
Wind Visibility Clouds
270° at 15 knots 10,000+ meters
  • Clear skies
Temperatures Readings
Current 11°C / 52°F
Dewpoint 8°C / 46°F
Humidity 82%
Altimeter 30.32" Hg
Pressure 1027 hPa
Elevation 70
METAR EGXW 230850Z 27015KT CAVOK 11/08 Q1027 BLU BECMG 28016G26KT BLU
Observed Flight Rules
Oct-23 @ 08:50 UTC
(49 minutes ago)
VFR
Wind Visibility
270° at 15 knots 10,000+ meters
Clouds
  • Clear skies
Temperature Dewpoint
11°C / 52°F 8°C / 46°F
Humidity Altimeter Pressure
82% 30.32" Hg 1027 hPa